createdAt,value
2017-09-24T00:00:32.817Z,10.24
2017-09-24T00:03:00.285Z,10.26
2017-09-24T00:05:27.739Z,10.07
2017-09-24T00:07:55.209Z,10.14
2017-09-24T00:10:22.663Z,10.08
2017-09-24T00:12:50.157Z,10.05
2017-09-24T00:15:17.641Z,10.03
2017-09-24T00:17:45.119Z,10.05
2017-09-24T00:20:12.662Z,9.99
2017-09-24T00:22:40.142Z,9.99
2017-09-24T00:25:07.635Z,10.05
2017-09-24T00:27:35.115Z,10.13
2017-09-24T00:30:02.559Z,10.21
2017-09-24T00:32:30.039Z,10.20
2017-09-24T00:34:57.495Z,10.22
2017-09-24T00:37:24.968Z,10.24
2017-09-24T00:39:52.464Z,10.06
2017-09-24T00:42:19.932Z,9.99
2017-09-24T00:44:47.366Z,9.92
2017-09-24T00:47:14.886Z,9.84
2017-09-24T00:49:42.369Z,9.94
2017-09-24T00:52:09.912Z,9.83
2017-09-24T00:54:37.379Z,9.82
2017-09-24T00:57:04.839Z,10.00
2017-09-24T00:59:32.396Z,9.95
2017-09-24T01:01:59.858Z,9.74
2017-09-24T01:04:27.407Z,9.69
2017-09-24T01:06:54.857Z,9.68
2017-09-24T01:09:22.327Z,9.68
2017-09-24T01:11:49.785Z,9.69
2017-09-24T01:14:17.263Z,9.54
2017-09-24T01:16:44.716Z,9.50
2017-09-24T01:19:12.200Z,9.53
2017-09-24T01:21:39.700Z,9.53
2017-09-24T01:24:07.178Z,9.53
2017-09-24T01:26:34.638Z,9.53
2017-09-24T01:29:02.114Z,9.54
2017-09-24T01:31:29.580Z,9.39
2017-09-24T01:33:57.059Z,9.41
2017-09-24T01:36:24.540Z,9.32
2017-09-24T01:38:52.023Z,9.42
2017-09-24T01:41:19.475Z,9.39
2017-09-24T01:43:46.968Z,9.60
2017-09-24T01:46:14.475Z,9.53
2017-09-24T01:48:41.965Z,9.38
2017-09-24T01:51:09.467Z,9.49
2017-09-24T01:53:36.919Z,9.41
2017-09-24T01:56:04.392Z,9.31
2017-09-24T01:58:31.843Z,9.42
2017-09-24T02:00:59.336Z,9.45
2017-09-24T02:03:26.873Z,9.54
2017-09-24T02:05:54.352Z,9.32
2017-09-24T02:08:21.891Z,9.22
2017-09-24T02:10:49.373Z,9.33
2017-09-24T02:13:16.836Z,9.24
2017-09-24T02:15:45.994Z,9.16
2017-09-24T02:18:13.464Z,9.03
2017-09-24T02:20:40.940Z,9.14
2017-09-24T02:23:08.401Z,9.25
2017-09-24T02:25:35.924Z,9.01
2017-09-24T02:28:03.383Z,8.92
2017-09-24T02:30:30.856Z,9.00
2017-09-24T02:32:58.312Z,8.91
2017-09-24T02:35:25.783Z,9.01
2017-09-24T02:37:53.237Z,8.85
2017-09-24T02:40:20.718Z,8.85
2017-09-24T02:42:48.222Z,8.89
2017-09-24T02:45:15.704Z,8.94
2017-09-24T02:47:43.172Z,8.88
2017-09-24T02:50:10.624Z,8.88
2017-09-24T02:52:38.128Z,9.00
2017-09-24T02:55:05.601Z,8.93
2017-09-24T02:57:33.071Z,8.94
2017-09-24T03:00:01.021Z,9.01
2017-09-24T03:02:28.497Z,9.11
2017-09-24T03:04:55.963Z,9.10
2017-09-24T03:07:23.433Z,8.99
2017-09-24T03:09:50.887Z,8.92
2017-09-24T03:12:18.365Z,8.96
2017-09-24T03:14:45.819Z,9.03
2017-09-24T03:17:13.301Z,9.07
2017-09-24T03:19:40.751Z,9.12
2017-09-24T03:22:08.223Z,9.15
2017-09-24T03:24:35.671Z,9.23
2017-09-24T03:27:03.157Z,9.35
2017-09-24T03:29:30.609Z,9.27
2017-09-24T03:31:58.079Z,9.21
2017-09-24T03:34:25.565Z,9.19
2017-09-24T03:36:53.103Z,9.27
2017-09-24T03:39:20.560Z,9.26
2017-09-24T03:41:48.108Z,9.23
2017-09-24T03:44:15.564Z,9.21
2017-09-24T03:46:43.075Z,9.17
2017-09-24T03:49:10.533Z,9.11
2017-09-24T03:51:38.027Z,9.02
2017-09-24T03:54:05.595Z,9.01
2017-09-24T03:56:33.074Z,8.98
2017-09-24T03:59:00.531Z,9.14
2017-09-24T04:01:28.067Z,9.11
2017-09-24T04:03:55.548Z,9.10
2017-09-24T04:06:23.017Z,9.05
2017-09-24T04:08:50.512Z,9.10
2017-09-24T04:11:17.963Z,9.08
2017-09-24T04:13:45.543Z,9.18
2017-09-24T04:16:13.005Z,9.02
2017-09-24T04:18:40.479Z,8.90
2017-09-24T04:21:07.935Z,8.84
2017-09-24T04:23:35.399Z,8.90
2017-09-24T04:26:02.928Z,8.88
2017-09-24T04:28:30.404Z,8.96
2017-09-24T04:30:57.944Z,8.89
2017-09-24T04:33:25.410Z,8.87
2017-09-24T04:35:52.973Z,8.88
2017-09-24T04:38:20.456Z,8.79
2017-09-24T04:40:47.928Z,8.75
2017-09-24T04:43:15.399Z,8.58
2017-09-24T04:45:42.855Z,8.52
2017-09-24T04:48:10.352Z,8.74
2017-09-24T04:50:37.816Z,8.67
2017-09-24T04:53:05.310Z,8.83
2017-09-24T04:55:32.776Z,8.76
2017-09-24T04:58:00.258Z,8.76
2017-09-24T05:00:27.771Z,8.72
2017-09-24T05:02:55.219Z,8.68
2017-09-24T05:05:22.704Z,8.57
2017-09-24T05:07:50.168Z,8.69
2017-09-24T05:10:17.657Z,8.68
2017-09-24T05:12:45.137Z,8.59
2017-09-24T05:15:12.623Z,8.38
2017-09-24T05:17:40.096Z,8.34
2017-09-24T05:20:07.577Z,8.41
2017-09-24T05:22:35.037Z,8.49
2017-09-24T05:25:02.512Z,8.42
2017-09-24T05:27:30.003Z,8.37
2017-09-24T05:29:57.513Z,8.55
2017-09-24T05:32:24.971Z,8.63
2017-09-24T05:34:52.478Z,8.83
2017-09-24T05:37:19.997Z,8.96
2017-09-24T05:39:47.462Z,8.85
2017-09-24T05:42:14.976Z,8.85
2017-09-24T05:44:42.460Z,8.76
2017-09-24T05:47:09.919Z,8.87
2017-09-24T05:49:37.404Z,8.72
2017-09-24T05:52:04.953Z,8.64
2017-09-24T05:54:32.444Z,8.66
2017-09-24T05:56:59.954Z,8.70
2017-09-24T05:59:27.443Z,8.74
2017-09-24T06:01:54.966Z,8.68
2017-09-24T06:04:22.432Z,8.80
2017-09-24T06:06:49.947Z,8.90
2017-09-24T06:09:17.437Z,8.64
2017-09-24T06:11:44.916Z,8.51
2017-09-24T06:14:12.394Z,8.50
2017-09-24T06:16:39.873Z,8.71
2017-09-24T06:19:07.329Z,8.73
2017-09-24T06:21:34.820Z,8.87
2017-09-24T06:24:02.284Z,8.80
2017-09-24T06:26:29.840Z,8.85
2017-09-24T06:28:57.303Z,8.90
2017-09-24T06:31:24.792Z,8.93
2017-09-24T06:33:52.303Z,9.09
2017-09-24T06:36:19.776Z,9.11
2017-09-24T06:38:47.240Z,9.14
2017-09-24T06:41:14.711Z,9.32
2017-09-24T06:43:42.163Z,9.18
2017-09-24T06:46:09.636Z,9.43
2017-09-24T06:48:37.097Z,9.53
2017-09-24T06:51:04.571Z,9.65
2017-09-24T06:53:32.023Z,9.78
2017-09-24T06:55:59.509Z,9.77
2017-09-24T06:58:26.992Z,10.03
2017-09-24T07:00:54.479Z,10.24
2017-09-24T07:03:21.938Z,10.17
2017-09-24T07:05:49.427Z,10.41
2017-09-24T07:08:16.885Z,10.46
2017-09-24T07:10:44.339Z,10.65
2017-09-24T07:13:11.811Z,10.72
2017-09-24T07:15:39.272Z,10.94
2017-09-24T07:18:06.776Z,11.06
2017-09-24T07:20:34.237Z,11.18
2017-09-24T07:23:01.745Z,11.28
2017-09-24T07:25:29.225Z,11.28
2017-09-24T07:27:56.711Z,11.39
2017-09-24T07:30:24.172Z,11.70
2017-09-24T07:32:51.647Z,11.69
2017-09-24T07:35:19.099Z,11.70
2017-09-24T07:37:46.577Z,11.62
2017-09-24T07:40:14.040Z,11.69
2017-09-24T07:42:41.524Z,11.58
2017-09-24T07:45:08.984Z,11.81
2017-09-24T07:47:36.459Z,12.00
2017-09-24T07:50:03.916Z,12.25
2017-09-24T07:52:31.391Z,12.32
2017-09-24T07:54:58.877Z,12.32
2017-09-24T07:57:26.373Z,12.62
2017-09-24T07:59:53.832Z,12.80
2017-09-24T08:02:21.301Z,12.84
2017-09-24T08:04:48.807Z,12.91
2017-09-24T08:07:16.265Z,13.10
2017-09-24T08:09:43.748Z,13.16
2017-09-24T08:12:11.283Z,13.75
2017-09-24T08:14:38.839Z,13.45
2017-09-24T08:17:06.300Z,13.58
2017-09-24T08:19:33.861Z,13.62
2017-09-24T08:22:01.332Z,13.68
2017-09-24T08:24:28.817Z,13.58
2017-09-24T08:26:56.272Z,13.56
2017-09-24T08:29:23.739Z,13.70
2017-09-24T08:31:51.200Z,14.17
2017-09-24T08:34:18.697Z,14.21
2017-09-24T08:36:46.183Z,14.63
2017-09-24T08:39:13.709Z,14.60
2017-09-24T08:41:41.271Z,14.91
2017-09-24T08:44:08.786Z,14.54
2017-09-24T08:46:36.243Z,14.61
2017-09-24T08:49:03.729Z,15.21
2017-09-24T08:51:31.186Z,15.05
2017-09-24T08:53:58.671Z,15.06
2017-09-24T08:56:26.225Z,15.09
2017-09-24T08:58:53.768Z,15.47
2017-09-24T09:01:21.249Z,15.56
2017-09-24T09:03:48.791Z,15.41
2017-09-24T09:06:16.272Z,15.85
2017-09-24T09:08:43.747Z,15.90
2017-09-24T09:11:11.259Z,15.72
2017-09-24T09:13:38.713Z,15.83
2017-09-24T09:16:06.190Z,16.22
2017-09-24T09:18:33.734Z,16.18
2017-09-24T09:21:01.220Z,15.78
2017-09-24T09:23:28.679Z,16.53
2017-09-24T09:25:56.205Z,16.80
2017-09-24T09:28:23.660Z,16.74
2017-09-24T09:30:51.223Z,16.72
2017-09-24T09:33:21.427Z,17.08
2017-09-24T09:35:48.908Z,16.96
2017-09-24T09:38:16.403Z,17.01
2017-09-24T09:40:43.896Z,17.11
2017-09-24T09:43:11.367Z,17.58
2017-09-24T09:45:50.731Z,17.63
2017-09-24T09:48:18.209Z,17.39
2017-09-24T09:50:45.695Z,17.59
2017-09-24T09:53:13.164Z,17.55
2017-09-24T09:55:40.644Z,17.99
2017-09-24T09:58:08.188Z,18.01
2017-09-24T10:00:35.749Z,18.10
2017-09-24T10:03:03.224Z,18.33
2017-09-24T10:05:30.775Z,18.78
2017-09-24T10:08:10.197Z,18.28
2017-09-24T10:10:37.684Z,18.48
2017-09-24T10:13:05.143Z,18.52
2017-09-24T10:15:32.647Z,18.50
2017-09-24T10:18:00.103Z,18.67
2017-09-24T10:20:27.595Z,18.95
2017-09-24T10:22:55.256Z,19.06
2017-09-24T10:25:22.752Z,19.10
2017-09-24T10:30:28.601Z,18.64
2017-09-24T10:32:56.063Z,18.57
2017-09-24T10:35:23.519Z,18.78
2017-09-24T10:37:51.002Z,19.04
2017-09-24T10:40:18.472Z,18.92
2017-09-24T10:42:45.942Z,18.98
2017-09-24T10:45:13.394Z,19.21
2017-09-24T10:47:40.881Z,19.10
2017-09-24T10:50:08.340Z,19.07
2017-09-24T10:52:35.819Z,19.13
2017-09-24T10:55:03.286Z,19.17
2017-09-24T10:57:30.779Z,19.34
2017-09-24T10:59:58.235Z,19.43
2017-09-24T11:02:25.709Z,19.67
2017-09-24T11:04:53.167Z,19.28
2017-09-24T11:07:20.748Z,19.52
2017-09-24T11:09:48.221Z,19.53
2017-09-24T11:12:15.738Z,19.10
2017-09-24T11:14:43.196Z,19.15
2017-09-24T11:17:10.671Z,19.14
2017-09-24T11:19:38.136Z,19.19
2017-09-24T11:22:05.615Z,19.19
2017-09-24T11:24:33.077Z,19.24
2017-09-24T11:27:00.571Z,19.42
2017-09-24T11:29:28.027Z,19.52
2017-09-24T11:31:55.503Z,19.31
2017-09-24T11:34:23.087Z,19.00
2017-09-24T11:36:50.611Z,19.13
2017-09-24T11:39:18.072Z,19.42
2017-09-24T11:41:45.543Z,19.37
2017-09-24T11:44:12.996Z,19.56
2017-09-24T11:46:40.553Z,19.25
2017-09-24T11:49:08.097Z,19.39
2017-09-24T11:51:35.579Z,19.37
2017-09-24T11:54:03.125Z,19.57
2017-09-24T11:56:30.622Z,19.36
2017-09-24T11:58:58.076Z,19.67
2017-09-24T12:01:25.561Z,19.48
2017-09-24T12:03:53.019Z,19.36
2017-09-24T12:06:20.485Z,19.58
2017-09-24T12:08:48.064Z,19.54
2017-09-24T12:11:15.524Z,19.70
2017-09-24T12:13:43.114Z,19.51
2017-09-24T12:16:10.631Z,19.24
2017-09-24T12:18:38.192Z,19.47
2017-09-24T12:21:05.670Z,19.63
2017-09-24T12:23:33.154Z,19.36
2017-09-24T12:26:00.616Z,19.47
2017-09-24T12:28:28.117Z,19.41
2017-09-24T12:30:55.580Z,19.62
2017-09-24T12:33:23.066Z,19.53
2017-09-24T12:35:50.601Z,19.22
2017-09-24T12:38:18.075Z,19.36
2017-09-24T12:40:45.541Z,19.57
2017-09-24T12:43:13.073Z,19.35
2017-09-24T12:45:40.550Z,19.44
2017-09-24T12:48:08.041Z,19.23
2017-09-24T12:50:35.514Z,19.34
2017-09-24T12:53:02.990Z,19.56
2017-09-24T12:55:30.460Z,19.67
2017-09-24T12:57:58.015Z,19.56
2017-09-24T13:00:25.480Z,19.49
2017-09-24T13:02:52.974Z,19.47
2017-09-24T13:05:20.460Z,19.62
2017-09-24T13:07:47.920Z,19.65
2017-09-24T13:10:15.408Z,19.79
2017-09-24T13:12:42.899Z,19.99
2017-09-24T13:15:10.384Z,19.91
2017-09-24T13:17:37.913Z,19.82
2017-09-24T13:20:05.404Z,19.83
2017-09-24T13:22:32.877Z,19.99
2017-09-24T13:25:00.389Z,19.62
2017-09-24T13:27:27.855Z,19.79
2017-09-24T13:29:55.358Z,19.88
2017-09-24T13:32:22.822Z,19.75
2017-09-24T13:34:50.295Z,19.53
2017-09-24T13:37:17.747Z,19.50
2017-09-24T13:39:45.247Z,19.51
2017-09-24T13:42:12.733Z,19.77
2017-09-24T13:44:40.243Z,19.60
2017-09-24T13:47:07.704Z,19.39
2017-09-24T13:49:35.188Z,19.60
2017-09-24T13:52:02.664Z,19.38
2017-09-24T13:54:30.232Z,19.47
2017-09-24T13:56:57.700Z,19.33
2017-09-24T13:59:25.247Z,19.27
2017-09-24T14:01:52.747Z,19.33
2017-09-24T14:04:20.211Z,19.55
2017-09-24T14:06:47.687Z,19.35
2017-09-24T14:09:15.143Z,19.48
2017-09-24T14:11:42.674Z,19.43
2017-09-24T14:14:10.141Z,19.41
2017-09-24T14:16:37.635Z,19.40
2017-09-24T14:19:05.115Z,19.28
2017-09-24T14:21:32.587Z,19.20
2017-09-24T14:24:00.047Z,19.13
2017-09-24T14:26:27.524Z,19.35
2017-09-24T14:28:55.037Z,19.34
2017-09-24T14:31:22.513Z,19.47
2017-09-24T14:33:50.025Z,19.22
2017-09-24T14:36:17.495Z,19.27
2017-09-24T14:38:45.068Z,19.02
2017-09-24T14:41:12.570Z,19.17
2017-09-24T14:43:40.075Z,19.09
2017-09-24T14:46:07.678Z,19.14
2017-09-24T14:48:35.148Z,19.06
2017-09-24T14:51:02.604Z,18.91
2017-09-24T14:53:30.098Z,18.96
2017-09-24T14:55:57.657Z,18.92
2017-09-24T14:58:25.132Z,18.91
2017-09-24T15:00:52.601Z,18.84
2017-09-24T15:03:20.187Z,18.93
2017-09-24T15:05:47.643Z,18.79
2017-09-24T15:08:15.142Z,18.83
2017-09-24T15:10:42.610Z,19.07
2017-09-24T15:13:10.084Z,19.17
2017-09-24T15:15:37.541Z,19.34
2017-09-24T15:18:05.026Z,19.27
2017-09-24T15:20:32.534Z,19.25
2017-09-24T15:23:00.019Z,19.21
2017-09-24T15:25:27.478Z,19.15
2017-09-24T15:27:54.956Z,19.53
2017-09-24T15:30:22.476Z,19.36
2017-09-24T15:32:49.951Z,19.33
2017-09-24T15:35:17.470Z,19.40
2017-09-24T15:37:44.940Z,19.41
2017-09-24T15:40:12.395Z,19.30
2017-09-24T15:42:39.951Z,19.39
2017-09-24T15:45:07.440Z,19.31
2017-09-24T15:47:34.919Z,19.32
2017-09-24T15:50:02.374Z,19.19
2017-09-24T15:52:29.837Z,19.34
2017-09-24T15:54:57.328Z,19.33
2017-09-24T15:57:24.784Z,19.44
2017-09-24T15:59:52.291Z,19.34
2017-09-24T16:02:19.752Z,19.15
2017-09-24T16:04:47.263Z,19.20
2017-09-24T16:07:14.748Z,19.11
2017-09-24T16:09:42.229Z,19.15
2017-09-24T16:12:09.707Z,19.23
2017-09-24T16:14:37.184Z,19.17
2017-09-24T16:17:04.645Z,19.26
2017-09-24T16:19:32.124Z,19.18
2017-09-24T16:21:59.588Z,18.96
2017-09-24T16:24:27.115Z,19.08
2017-09-24T16:26:54.576Z,18.92
2017-09-24T16:29:22.078Z,18.86
2017-09-24T16:31:49.583Z,18.92
2017-09-24T16:34:17.064Z,18.76
2017-09-24T16:36:44.527Z,18.72
2017-09-24T16:39:12.009Z,18.69
2017-09-24T16:41:39.472Z,18.66
2017-09-24T16:44:06.981Z,18.61
2017-09-24T16:46:34.502Z,18.60
2017-09-24T16:49:01.978Z,18.59
2017-09-24T16:51:29.468Z,18.56
2017-09-24T16:53:56.960Z,18.55
2017-09-24T16:56:24.427Z,18.41
2017-09-24T16:58:51.915Z,18.34
2017-09-24T17:01:19.373Z,18.38
2017-09-24T17:03:46.858Z,18.36
2017-09-24T17:06:14.321Z,18.28
2017-09-24T17:08:41.824Z,18.22
2017-09-24T17:11:09.333Z,18.26
2017-09-24T17:13:36.803Z,18.41
2017-09-24T17:16:04.289Z,18.26
2017-09-24T17:18:31.780Z,18.18
2017-09-24T17:20:59.344Z,17.89
2017-09-24T17:23:26.803Z,17.67
2017-09-24T17:25:54.307Z,17.76
2017-09-24T17:28:21.780Z,17.74
2017-09-24T17:30:49.275Z,17.73
2017-09-24T17:33:16.735Z,17.47
2017-09-24T17:35:44.287Z,17.32
2017-09-24T17:38:11.842Z,16.97
2017-09-24T17:40:39.399Z,16.63
2017-09-24T17:43:06.862Z,16.57
2017-09-24T17:45:34.350Z,16.22
2017-09-24T17:48:01.854Z,16.00
2017-09-24T17:50:29.324Z,16.06
2017-09-24T17:52:56.881Z,15.73
2017-09-24T17:55:24.380Z,15.90
2017-09-24T17:57:51.849Z,15.72
2017-09-24T18:00:19.328Z,15.79
2017-09-24T18:02:46.844Z,15.75
2017-09-24T18:05:14.331Z,15.82
2017-09-24T18:07:41.784Z,15.62
2017-09-24T18:10:09.279Z,15.28
2017-09-24T18:12:36.781Z,15.15
2017-09-24T18:15:04.269Z,15.15
2017-09-24T18:17:31.751Z,15.09
2017-09-24T18:19:59.313Z,14.84
2017-09-24T18:22:26.872Z,14.91
2017-09-24T18:24:54.338Z,15.19
2017-09-24T18:27:21.878Z,15.13
2017-09-24T18:29:49.345Z,15.19
2017-09-24T18:32:16.837Z,15.03
2017-09-24T18:34:44.356Z,14.90
2017-09-24T18:37:11.848Z,15.00
2017-09-24T18:39:39.304Z,14.76
2017-09-24T18:42:06.787Z,14.84
2017-09-24T18:44:34.250Z,14.91
2017-09-24T18:47:01.849Z,14.87
2017-09-24T18:49:29.327Z,14.70
2017-09-24T18:51:56.792Z,14.87
2017-09-24T18:54:24.267Z,14.80
2017-09-24T18:56:51.724Z,14.86
2017-09-24T18:59:19.209Z,14.70
2017-09-24T19:01:46.680Z,14.59
2017-09-24T19:04:14.247Z,14.59
2017-09-24T19:06:41.720Z,14.56
2017-09-24T19:09:09.252Z,14.54
2017-09-24T19:11:36.708Z,14.40
2017-09-24T19:14:04.188Z,14.41
2017-09-24T19:16:31.664Z,14.29
2017-09-24T19:18:59.147Z,14.20
2017-09-24T19:21:26.616Z,14.21
2017-09-24T19:23:54.125Z,14.08
2017-09-24T19:26:21.584Z,14.04
2017-09-24T19:28:49.044Z,13.74
2017-09-24T19:31:16.529Z,13.75
2017-09-24T19:33:43.985Z,13.69
2017-09-24T19:36:11.468Z,13.75
2017-09-24T19:38:39.050Z,13.75
2017-09-24T19:41:06.528Z,13.70
2017-09-24T19:43:34.082Z,13.63
2017-09-24T19:46:01.573Z,13.54
2017-09-24T19:48:29.086Z,13.37
2017-09-24T19:50:56.628Z,13.24
2017-09-24T19:53:24.112Z,13.30
2017-09-24T19:55:51.600Z,13.16
2017-09-24T19:58:19.059Z,13.22
2017-09-24T20:00:46.543Z,13.27
2017-09-24T20:03:14.005Z,13.16
2017-09-24T20:05:41.519Z,13.15
2017-09-24T20:08:08.996Z,13.20
2017-09-24T20:10:36.481Z,13.27
2017-09-24T20:13:03.955Z,12.87
2017-09-24T20:15:31.496Z,12.97
2017-09-24T20:17:58.974Z,12.81
2017-09-24T20:20:26.514Z,12.66
2017-09-24T20:22:53.999Z,12.52
2017-09-24T20:25:21.490Z,12.49
2017-09-24T20:27:48.952Z,12.59
2017-09-24T20:30:16.437Z,12.43
2017-09-24T20:32:43.907Z,12.19
2017-09-24T20:35:11.388Z,12.00
2017-09-24T20:37:38.862Z,11.95
2017-09-24T20:40:06.349Z,12.13
2017-09-24T20:42:33.860Z,12.08
2017-09-24T20:45:01.405Z,12.08
2017-09-24T20:47:28.876Z,12.27
2017-09-24T20:49:56.356Z,12.42
2017-09-24T20:52:23.819Z,12.49
2017-09-24T20:54:51.298Z,12.40
2017-09-24T20:57:18.751Z,12.42
2017-09-24T20:59:46.216Z,12.44
2017-09-24T21:02:13.701Z,12.43
2017-09-24T21:04:41.172Z,12.43
2017-09-24T21:07:08.699Z,12.19
2017-09-24T21:09:36.166Z,12.16
2017-09-24T21:12:03.666Z,12.02
2017-09-24T21:14:31.137Z,11.85
2017-09-24T21:16:58.620Z,11.78
2017-09-24T21:19:26.083Z,11.78
2017-09-24T21:21:53.561Z,11.84
2017-09-24T21:24:21.035Z,11.66
2017-09-24T21:26:48.546Z,11.51
2017-09-24T21:29:16.011Z,11.57
2017-09-24T21:31:43.496Z,11.60
2017-09-24T21:34:10.951Z,11.39
2017-09-24T21:36:38.432Z,11.32
2017-09-24T21:39:05.905Z,11.20
2017-09-24T21:41:33.385Z,11.19
2017-09-24T21:44:00.838Z,11.08
2017-09-24T21:46:28.320Z,11.12
2017-09-24T21:48:55.828Z,11.12
2017-09-24T21:51:23.334Z,11.16
2017-09-24T21:53:50.829Z,11.22
2017-09-24T21:56:18.287Z,10.99
2017-09-24T21:58:45.778Z,11.03
2017-09-24T22:01:13.264Z,11.24
2017-09-24T22:03:40.747Z,11.17
2017-09-24T22:06:08.199Z,11.13
2017-09-24T22:08:36.561Z,11.24
2017-09-24T22:11:04.097Z,11.22
2017-09-24T22:13:32.452Z,10.97
2017-09-24T22:15:59.919Z,10.88
2017-09-24T22:18:27.428Z,10.80
2017-09-24T22:20:54.892Z,10.75
2017-09-24T22:23:22.392Z,10.72
2017-09-24T22:25:49.851Z,10.72
2017-09-24T22:28:17.344Z,10.63
2017-09-24T22:30:44.816Z,10.80
2017-09-24T22:33:12.296Z,10.69
2017-09-24T22:35:39.751Z,10.76
2017-09-24T22:38:07.264Z,10.69
2017-09-24T22:40:34.723Z,10.66
2017-09-24T22:43:02.254Z,10.59
2017-09-24T22:45:29.706Z,10.59
2017-09-24T22:47:57.324Z,10.51
2017-09-24T22:50:24.792Z,10.52
2017-09-24T22:52:52.271Z,10.66
2017-09-24T22:55:19.736Z,10.63
2017-09-24T22:57:47.219Z,10.74
2017-09-24T23:00:14.768Z,10.59
2017-09-24T23:02:42.324Z,10.48
2017-09-24T23:05:09.781Z,10.40
2017-09-24T23:07:37.239Z,10.07
2017-09-24T23:10:04.733Z,10.26
2017-09-24T23:12:32.257Z,10.28
2017-09-24T23:14:59.738Z,10.42
2017-09-24T23:17:27.212Z,10.31
2017-09-24T23:19:54.707Z,10.33
2017-09-24T23:22:22.184Z,10.19
2017-09-24T23:24:49.667Z,10.16
2017-09-24T23:27:17.331Z,10.18
2017-09-24T23:29:44.807Z,10.04
2017-09-24T23:32:12.348Z,10.12
2017-09-24T23:34:39.823Z,10.07
2017-09-24T23:37:07.291Z,9.96
2017-09-24T23:39:34.768Z,9.90
2017-09-24T23:42:02.217Z,9.88
2017-09-24T23:44:29.692Z,9.65
2017-09-24T23:46:57.276Z,9.82
2017-09-24T23:49:24.820Z,9.80
2017-09-24T23:51:52.280Z,10.03
2017-09-24T23:54:19.783Z,9.97
2017-09-24T23:56:47.240Z,9.84
2017-09-24T23:59:14.732Z,9.71
